Time;durP1;ratioP1;P1;durP2;ratioP2;P2;SDS_P1;SDS_P2;PMS_P1;PMS_P2;Temp;Humidity;BMP_temperature;BMP_pressure;BME280_temperature;BME280_humidity;BME280_pressure;Samples;Min_cycle;Max_cycle;Signal;HPM_P1;HPM_P2
2024/03/31 07:03:35;;;;;;;;;;;;;;;;;;6199810;22;19939;-87
2024/03/31 07:06:02;;;;;;;;;;;;;;;;;;6249527;23;20219;-87
2024/03/31 07:08:27;;;;;;;;;;;;;;;;;;6246846;23;19962;-87
2024/03/31 07:10:53;;;;;;;;;;;;;;;;;;6246777;23;19907;-88
2024/03/31 07:13:18;;;;;;;;;;;;;;;;;;6246762;23;19912;-87
2024/03/31 07:15:43;;;;;;;;;;;;;;;;;;6220023;23;19990;-86
2024/03/31 08:27:12;;;;;;;;;;;;;;;;;;6232738;22;19915;-87
2024/03/31 08:29:38;;;;;;;;;;;;;;;;;;6247652;23;19911;-83
2024/03/31 08:32:03;;;;;;;;;;;;;;;;;;6248013;23;20003;-84
2024/03/31 08:34:29;;;;;;;;;;;;;;;;;;6248121;23;19927;-84
2024/03/31 08:36:54;;;;;;;;;;;;;;;;;;6247899;23;19907;-86
2024/03/31 08:39:20;;;;;;;;;;;;;;;;;;6221192;23;19914;-84
2024/03/31 08:41:51;;;;;;;;;;;;;;;;;;6221205;23;20278;-85
2024/03/31 08:44:17;;;;;;;;;;;;;;;;;;6247788;23;19907;-83
2024/03/31 08:46:42;;;;;;;;;;;;;;;;;;6247880;23;19908;-87
2024/03/31 08:49:08;;;;;;;;;;;;;;;;;;6247914;23;20322;-85
2024/03/31 08:51:33;;;;;;;;;;;;;;;;;;6247825;23;20311;-85
2024/03/31 08:53:59;;;;;;;;;;;;;;;;;;6247575;23;19941;-85
2024/03/31 08:56:24;;;;;;;;;;;;;;;;;;6247446;23;19908;-88
2024/03/31 08:58:50;;;;;;;;;;;;;;;;;;6247451;23;20246;-84
2024/03/31 09:01:16;;;;;;;;;;;;;;;;;;6220885;23;19957;-84
2024/03/31 09:03:42;;;;;;;;;;;;;;;;;;6220742;23;20295;-85
2024/03/31 09:06:07;;;;;;;;;;;;;;;;;;6247789;23;19908;-86
2024/03/31 09:08:32;;;;;;;;;;;;;;;;;;6247590;23;19942;-83
2024/03/31 09:10:58;;;;;;;;;;;;;;;;;;6220818;23;19911;-85
2024/03/31 09:13:23;;;;;;;;;;;;;;;;;;6247347;23;19907;-84
2024/03/31 09:15:48;;;;;;;;;;;;;;;;;;6247946;23;19907;-83
2024/03/31 09:18:14;;;;;;;;;;;;;;;;;;6247580;23;20215;-89
2024/03/31 09:20:39;;;;;;;;;;;;;;;;;;6247717;23;20274;-84
2024/03/31 09:23:05;;;;;;;;;;;;;;;;;;6247494;23;19912;-83
2024/03/31 12:44:57;;;;;;;;;;;;;;;;;;6246973;23;19998;-92
2024/03/31 12:47:23;;;;;;;;;;;;;;;;;;6222868;23;19934;-86
2024/03/31 12:49:48;;;;;;;;;;;;;;;;;;6247631;23;19907;-88
2024/03/31 12:52:14;;;;;;;;;;;;;;;;;;6247907;23;19938;-93
2024/03/31 12:54:39;;;;;;;;;;;;;;;;;;6248573;23;19914;-90
2024/03/31 12:57:05;;;;;;;;;;;;;;;;;;6223410;23;19913;-90
2024/03/31 12:59:30;;;;;;;;;;;;;;;;;;6248319;23;19938;-89
2024/03/31 13:01:59;;;;;;;;;;;;;;;;;;6248429;23;20322;-90
2024/03/31 13:04:25;;;;;;;;;;;;;;;;;;6221262;23;19908;-87
2024/03/31 13:06:51;;;;;;;;;;;;;;;;;;6247910;23;20338;-88
2024/03/31 13:09:19;;;;;;;;;;;;;;;;;;6221257;23;20326;-90
2024/03/31 13:11:44;;;;;;;;;;;;;;;;;;6247888;23;19907;-87
2024/03/31 13:14:13;;;;;;;;;;;;;;;;;;6247787;23;20307;-93
2024/03/31 13:16:39;;;;;;;;;;;;;;;;;;6221122;23;19915;-88
2024/03/31 13:19:04;;;;;;;;;;;;;;;;;;6247322;23;19904;-91
2024/03/31 13:21:29;;;;;;;;;;;;;;;;;;6220408;23;19907;-90
2024/03/31 13:23:55;;;;;;;;;;;;;;;;;;6248093;23;19911;-86
2024/03/31 13:26:20;;;;;;;;;;;;;;;;;;6247744;23;19907;-87
2024/03/31 13:28:46;;;;;;;;;;;;;;;;;;6247558;23;20122;-89
2024/03/31 13:31:11;;;;;;;;;;;;;;;;;;6247730;23;19995;-90
2024/03/31 13:33:37;;;;;;;;;;;;;;;;;;6247658;23;19911;-89
2024/03/31 13:36:02;;;;;;;;;;;;;;;;;;6221119;23;20016;-91
2024/03/31 13:38:29;;;;;;;;;;;;;;;;;;6221183;23;19907;-89
2024/03/31 13:40:54;;;;;;;;;;;;;;;;;;6247856;23;19931;-93
2024/03/31 13:43:20;;;;;;;;;;;;;;;;;;6247980;23;19912;-88
2024/03/31 13:45:45;;;;;;;;;;;;;;;;;;6247450;23;19934;-88
2024/03/31 13:48:10;;;;;;;;;;;;;;;;;;6247843;23;19907;-91
2024/03/31 13:50:36;;;;;;;;;;;;;;;;;;6220667;23;19912;-90
2024/03/31 13:53:01;;;;;;;;;;;;;;;;;;6220743;23;20227;-89
2024/03/31 13:55:26;;;;;;;;;;;;;;;;;;6220813;23;20294;-87
2024/03/31 13:57:52;;;;;;;;;;;;;;;;;;6247348;23;19970;-89
2024/03/31 14:00:17;;;;;;;;;;;;;;;;;;6220857;23;19983;-89
2024/03/31 14:02:43;;;;;;;;;;;;;;;;;;6247368;23;19923;-91
2024/03/31 14:05:08;;;;;;;;;;;;;;;;;;6247343;23;19914;-91
2024/03/31 14:07:34;;;;;;;;;;;;;;;;;;6246782;23;20039;-89
2024/03/31 14:09:59;;;;;;;;;;;;;;;;;;6249265;23;19915;-90
2024/03/31 14:12:24;;;;;;;;;;;;;;;;;;6245092;23;19970;-89
2024/03/31 14:14:50;;;;;;;;;;;;;;;;;;6247536;23;19907;-92
2024/03/31 14:17:16;;;;;;;;;;;;;;;;;;6248867;23;19908;-89
2024/03/31 14:19:41;;;;;;;;;;;;;;;;;;6222012;23;19907;-88
2024/03/31 14:22:06;;;;;;;;;;;;;;;;;;6247182;23;19982;-89
2024/03/31 14:24:32;;;;;;;;;;;;;;;;;;6247470;23;19911;-91
2024/03/31 14:26:57;;;;;;;;;;;;;;;;;;6247187;23;20277;-89
2024/03/31 14:29:22;;;;;;;;;;;;;;;;;;6247296;23;19950;-90
2024/03/31 14:31:48;;;;;;;;;;;;;;;;;;6219862;23;19915;-87
2024/03/31 14:34:13;;;;;;;;;;;;;;;;;;6246863;23;19915;-87
2024/03/31 14:36:38;;;;;;;;;;;;;;;;;;6246992;23;19931;-87
2024/03/31 14:39:04;;;;;;;;;;;;;;;;;;6247495;23;19903;-88
2024/03/31 14:41:30;;;;;;;;;;;;;;;;;;6246778;23;20238;-88
2024/03/31 14:43:56;;;;;;;;;;;;;;;;;;6247341;23;19978;-88
2024/03/31 14:46:21;;;;;;;;;;;;;;;;;;6246849;23;19938;-88
2024/03/31 14:48:46;;;;;;;;;;;;;;;;;;6247720;23;19911;-88
2024/03/31 14:51:12;;;;;;;;;;;;;;;;;;6220576;23;20046;-89
2024/03/31 14:53:37;;;;;;;;;;;;;;;;;;6247050;23;19914;-92
2024/03/31 14:56:09;;;;;;;;;;;;;;;;;;6248090;23;19923;-91
2024/03/31 14:58:34;;;;;;;;;;;;;;;;;;6223714;23;19926;-88
2024/03/31 15:01:00;;;;;;;;;;;;;;;;;;6246866;23;20334;-90
2024/03/31 15:03:25;;;;;;;;;;;;;;;;;;6220611;23;19904;-90
2024/03/31 15:05:51;;;;;;;;;;;;;;;;;;6220660;23;19908;-91
2024/03/31 15:08:17;;;;;;;;;;;;;;;;;;6220642;23;20008;-91
2024/03/31 15:10:42;;;;;;;;;;;;;;;;;;6247228;23;19910;-89
2024/03/31 15:13:08;;;;;;;;;;;;;;;;;;6247351;23;19930;-96
2024/03/31 15:15:33;;;;;;;;;;;;;;;;;;6220955;23;19907;-93
2024/03/31 15:17:59;;;;;;;;;;;;;;;;;;6220330;23;19950;-90
2024/03/31 15:20:24;;;;;;;;;;;;;;;;;;6248397;23;19908;-94
2024/03/31 15:22:49;;;;;;;;;;;;;;;;;;6228068;23;19977;-93
2024/03/31 15:25:15;;;;;;;;;;;;;;;;;;6247564;23;19907;-87
2024/03/31 15:27:40;;;;;;;;;;;;;;;;;;6246483;23;20378;-86
2024/03/31 15:30:06;;;;;;;;;;;;;;;;;;6246446;23;19907;-86
2024/03/31 15:32:32;;;;;;;;;;;;;;;;;;6246465;23;19907;-87
2024/03/31 15:34:57;;;;;;;;;;;;;;;;;;6246897;23;19928;-86
2024/03/31 15:37:22;;;;;;;;;;;;;;;;;;6246570;23;19907;-86
2024/03/31 15:39:48;;;;;;;;;;;;;;;;;;6246747;23;20323;-87
2024/03/31 15:42:13;;;;;;;;;;;;;;;;;;6247881;23;19934;-87
2024/03/31 15:44:38;;;;;;;;;;;;;;;;;;6248388;23;19911;-87
2024/03/31 15:47:04;;;;;;;;;;;;;;;;;;6248446;23;19907;-87
2024/03/31 15:49:30;;;;;;;;;;;;;;;;;;6221531;23;19985;-86
2024/03/31 15:51:56;;;;;;;;;;;;;;;;;;6248362;23;19907;-86
2024/03/31 15:54:21;;;;;;;;;;;;;;;;;;6248389;23;19914;-88
2024/03/31 15:56:46;;;;;;;;;;;;;;;;;;6248517;23;19911;-86
2024/03/31 15:59:12;;;;;;;;;;;;;;;;;;6221442;23;19907;-86
2024/03/31 16:01:37;;;;;;;;;;;;;;;;;;6248178;23;19931;-87
2024/03/31 16:04:03;;;;;;;;;;;;;;;;;;6248105;23;19907;-86
2024/03/31 16:06:28;;;;;;;;;;;;;;;;;;6221398;23;19990;-86
2024/03/31 16:08:53;;;;;;;;;;;;;;;;;;6248321;23;19907;-86
2024/03/31 16:11:19;;;;;;;;;;;;;;;;;;6220899;23;19945;-86
2024/03/31 16:13:44;;;;;;;;;;;;;;;;;;6220784;23;19915;-89
2024/03/31 16:16:09;;;;;;;;;;;;;;;;;;6248296;23;20243;-86
2024/03/31 16:18:35;;;;;;;;;;;;;;;;;;6221290;23;19982;-86
2024/03/31 16:21:00;;;;;;;;;;;;;;;;;;6248464;23;19908;-86
2024/03/31 16:23:25;;;;;;;;;;;;;;;;;;6247943;23;20311;-87
2024/03/31 16:25:50;;;;;;;;;;;;;;;;;;6247960;23;19923;-87
2024/03/31 16:28:16;;;;;;;;;;;;;;;;;;6247814;23;20019;-87
2024/03/31 16:30:42;;;;;;;;;;;;;;;;;;6221058;23;19914;-88
2024/03/31 16:33:07;;;;;;;;;;;;;;;;;;6247997;23;19912;-86
2024/03/31 16:35:34;;;;;;;;;;;;;;;;;;6221144;23;19908;-85
2024/03/31 16:37:59;;;;;;;;;;;;;;;;;;6247995;23;20311;-86
2024/03/31 16:40:25;;;;;;;;;;;;;;;;;;6247872;23;19907;-86
2024/03/31 16:42:50;;;;;;;;;;;;;;;;;;6220933;23;19914;-86
2024/03/31 16:45:16;;;;;;;;;;;;;;;;;;6248107;23;19926;-88
2024/03/31 16:47:41;;;;;;;;;;;;;;;;;;6220881;23;19911;-85
2024/03/31 16:50:07;;;;;;;;;;;;;;;;;;6248209;23;20280;-85
2024/03/31 16:52:32;;;;;;;;;;;;;;;;;;6220279;23;19907;-86
2024/03/31 16:54:58;;;;;;;;;;;;;;;;;;6247816;23;19974;-88
2024/03/31 16:57:23;;;;;;;;;;;;;;;;;;6247744;23;20247;-86
2024/03/31 16:59:48;;;;;;;;;;;;;;;;;;6247594;23;20390;-85
2024/03/31 17:02:14;;;;;;;;;;;;;;;;;;6247688;23;19907;-86
2024/03/31 17:04:39;;;;;;;;;;;;;;;;;;6247958;23;19950;-86
2024/03/31 17:07:05;;;;;;;;;;;;;;;;;;6247568;23;19908;-86
2024/03/31 17:09:30;;;;;;;;;;;;;;;;;;6247677;23;19923;-86
2024/03/31 17:11:56;;;;;;;;;;;;;;;;;;6247867;23;19907;-87
2024/03/31 17:14:23;;;;;;;;;;;;;;;;;;6247538;23;19911;-87
2024/03/31 17:16:48;;;;;;;;;;;;;;;;;;6247389;23;20226;-86
2024/03/31 17:19:14;;;;;;;;;;;;;;;;;;6248130;23;19915;-87
2024/03/31 17:21:41;;;;;;;;;;;;;;;;;;6247441;23;19908;-86
2024/03/31 17:24:06;;;;;;;;;;;;;;;;;;6247333;23;19911;-87
2024/03/31 17:26:32;;;;;;;;;;;;;;;;;;6220651;23;19982;-90
2024/03/31 17:28:57;;;;;;;;;;;;;;;;;;6247549;23;20228;-90
2024/03/31 17:31:22;;;;;;;;;;;;;;;;;;6248827;23;19914;-88
2024/03/31 17:33:48;;;;;;;;;;;;;;;;;;6247707;23;19943;-88
2024/03/31 17:36:13;;;;;;;;;;;;;;;;;;6247510;23;19961;-88
2024/03/31 17:38:38;;;;;;;;;;;;;;;;;;6247315;23;20238;-88
2024/03/31 17:41:04;;;;;;;;;;;;;;;;;;6220436;23;19907;-88
2024/03/31 17:43:30;;;;;;;;;;;;;;;;;;6248983;23;19907;-86
2024/03/31 17:46:09;;;;;;;;;;;;;;;;;;6220410;23;20311;-89
2024/03/31 17:48:35;;;;;;;;;;;;;;;;;;6220413;23;19907;-89
2024/03/31 17:51:04;;;;;;;;;;;;;;;;;;6247399;23;19907;-88
2024/03/31 17:53:29;;;;;;;;;;;;;;;;;;6247126;23;20385;-90
2024/03/31 17:55:55;;;;;;;;;;;;;;;;;;6220454;23;19934;-88
2024/03/31 17:58:20;;;;;;;;;;;;;;;;;;6247227;23;19904;-88
2024/03/31 18:00:46;;;;;;;;;;;;;;;;;;6247013;23;19907;-89
2024/03/31 18:03:12;;;;;;;;;;;;;;;;;;6247527;23;20295;-89
2024/03/31 18:05:37;;;;;;;;;;;;;;;;;;6247125;23;19904;-92
2024/03/31 18:08:03;;;;;;;;;;;;;;;;;;6220545;23;20307;-90
2024/03/31 18:10:29;;;;;;;;;;;;;;;;;;6220364;23;19953;-93
2024/03/31 18:12:54;;;;;;;;;;;;;;;;;;6247185;23;19986;-93
2024/03/31 18:15:20;;;;;;;;;;;;;;;;;;6247417;23;19918;-93
2024/03/31 18:17:46;;;;;;;;;;;;;;;;;;6247232;23;19910;-92
2024/03/31 18:20:11;;;;;;;;;;;;;;;;;;6247152;23;19907;-90
2024/03/31 18:22:37;;;;;;;;;;;;;;;;;;6219327;23;19935;-90
2024/03/31 18:25:03;;;;;;;;;;;;;;;;;;6247656;23;19903;-90
2024/03/31 18:27:30;;;;;;;;;;;;;;;;;;6220384;23;20252;-90
2024/03/31 18:29:55;;;;;;;;;;;;;;;;;;6220350;23;19903;-90
2024/03/31 18:32:21;;;;;;;;;;;;;;;;;;6220320;23;19914;-92
2024/03/31 18:34:46;;;;;;;;;;;;;;;;;;6246734;23;19948;-92
2024/03/31 18:37:12;;;;;;;;;;;;;;;;;;6219667;23;19908;-91
2024/03/31 18:39:37;;;;;;;;;;;;;;;;;;6220409;23;20327;-90
2024/03/31 18:42:02;;;;;;;;;;;;;;;;;;6220390;23;19908;-93
2024/03/31 18:44:28;;;;;;;;;;;;;;;;;;6220511;23;19912;-92
2024/03/31 18:46:53;;;;;;;;;;;;;;;;;;6220441;23;19957;-90
2024/03/31 18:49:18;;;;;;;;;;;;;;;;;;6220534;23;19908;-90
2024/03/31 18:51:45;;;;;;;;;;;;;;;;;;6220484;23;19942;-91
2024/03/31 18:54:10;;;;;;;;;;;;;;;;;;6221020;23;20234;-91
2024/03/31 18:56:35;;;;;;;;;;;;;;;;;;6222701;23;19908;-92
2024/03/31 18:59:01;;;;;;;;;;;;;;;;;;6223507;23;19915;-92
2024/03/31 19:01:26;;;;;;;;;;;;;;;;;;6249247;23;19919;-91
2024/03/31 19:03:52;;;;;;;;;;;;;;;;;;6247316;23;19918;-90
2024/03/31 19:06:18;;;;;;;;;;;;;;;;;;6246761;23;20299;-90
2024/03/31 19:08:44;;;;;;;;;;;;;;;;;;6219620;23;19982;-89
2024/03/31 19:11:09;;;;;;;;;;;;;;;;;;6220014;23;19918;-89
2024/03/31 19:13:38;;;;;;;;;;;;;;;;;;6246500;23;19907;-90
2024/03/31 19:16:04;;;;;;;;;;;;;;;;;;6220148;23;19934;-90
2024/03/31 19:18:31;;;;;;;;;;;;;;;;;;6221766;23;19915;-90
2024/03/31 19:21:14;;;;;;;;;;;;;;;;;;6221790;23;20311;-88
2024/03/31 19:23:41;;;;;;;;;;;;;;;;;;6221776;23;20282;-88
2024/03/31 19:26:07;;;;;;;;;;;;;;;;;;6221747;23;20037;-88
2024/03/31 19:28:33;;;;;;;;;;;;;;;;;;6221897;23;20021;-88
2024/03/31 19:30:58;;;;;;;;;;;;;;;;;;6221648;23;19907;-88
2024/03/31 19:33:24;;;;;;;;;;;;;;;;;;6221602;23;19958;-90
2024/03/31 19:35:49;;;;;;;;;;;;;;;;;;6221443;23;20304;-88
2024/03/31 19:38:14;;;;;;;;;;;;;;;;;;6221960;23;19908;-89
2024/03/31 19:40:41;;;;;;;;;;;;;;;;;;6221930;23;19946;-90
2024/03/31 19:43:06;;;;;;;;;;;;;;;;;;6221746;23;19990;-90
2024/03/31 19:45:32;;;;;;;;;;;;;;;;;;6221375;23;19977;-90
2024/03/31 19:47:58;;;;;;;;;;;;;;;;;;6222362;23;19956;-92
2024/03/31 19:50:23;;;;;;;;;;;;;;;;;;6248179;23;19903;-90
2024/03/31 19:52:48;;;;;;;;;;;;;;;;;;6249213;23;19907;-90
2024/03/31 19:55:14;;;;;;;;;;;;;;;;;;6222393;23;19911;-88
2024/03/31 19:57:40;;;;;;;;;;;;;;;;;;6247117;22;19911;-86
2024/03/31 20:00:06;;;;;;;;;;;;;;;;;;6221443;23;20018;-87
2024/03/31 20:02:33;;;;;;;;;;;;;;;;;;6221074;23;20287;-90
2024/03/31 20:04:59;;;;;;;;;;;;;;;;;;6248098;23;19915;-89
2024/03/31 20:07:25;;;;;;;;;;;;;;;;;;6248077;23;19910;-93
2024/03/31 20:09:51;;;;;;;;;;;;;;;;;;6248608;23;19922;-89
2024/03/31 20:12:16;;;;;;;;;;;;;;;;;;6221299;23;19908;-86
2024/03/31 20:14:42;;;;;;;;;;;;;;;;;;6221348;23;19998;-87
2024/03/31 20:17:07;;;;;;;;;;;;;;;;;;6220805;23;20337;-88
2024/03/31 20:19:33;;;;;;;;;;;;;;;;;;6221398;23;19934;-86
2024/03/31 20:21:58;;;;;;;;;;;;;;;;;;6248494;23;19958;-88
2024/03/31 20:24:23;;;;;;;;;;;;;;;;;;6196086;23;19957;-86
2024/03/31 20:26:49;;;;;;;;;;;;;;;;;;6248474;23;19961;-90
2024/03/31 20:29:14;;;;;;;;;;;;;;;;;;6248806;23;19907;-86
2024/03/31 20:31:39;;;;;;;;;;;;;;;;;;6249176;23;19907;-87
2024/03/31 20:34:05;;;;;;;;;;;;;;;;;;6251012;23;19914;-87
2024/03/31 20:36:30;;;;;;;;;;;;;;;;;;6251687;23;19907;-88
2024/03/31 20:38:56;;;;;;;;;;;;;;;;;;6248470;23;20315;-89
2024/03/31 20:41:21;;;;;;;;;;;;;;;;;;6221962;23;19911;-89
2024/03/31 20:43:46;;;;;;;;;;;;;;;;;;6248335;23;19937;-86
2024/03/31 20:46:12;;;;;;;;;;;;;;;;;;6247845;23;19934;-87
2024/03/31 20:48:37;;;;;;;;;;;;;;;;;;6247578;23;19912;-86
2024/03/31 20:51:05;;;;;;;;;;;;;;;;;;6247492;23;19915;-86
2024/03/31 20:53:31;;;;;;;;;;;;;;;;;;6220310;23;20337;-86
2024/03/31 20:55:57;;;;;;;;;;;;;;;;;;6220805;23;19911;-85
2024/03/31 20:58:23;;;;;;;;;;;;;;;;;;6247637;23;20234;-87
2024/03/31 21:01:08;;;;;;;;;;;;;;;;;;6247243;23;19991;-88
2024/03/31 21:03:36;;;;;;;;;;;;;;;;;;6220678;23;20377;-87
2024/03/31 21:06:02;;;;;;;;;;;;;;;;;;6220720;23;19913;-87
2024/03/31 21:08:28;;;;;;;;;;;;;;;;;;6247252;23;19911;-87
2024/03/31 21:11:02;;;;;;;;;;;;;;;;;;6247149;23;19904;-87
2024/03/31 21:13:28;;;;;;;;;;;;;;;;;;6247374;23;19911;-92
2024/03/31 21:15:54;;;;;;;;;;;;;;;;;;6220652;23;20288;-88
2024/03/31 21:18:19;;;;;;;;;;;;;;;;;;6247658;23;19913;-88
2024/03/31 21:20:44;;;;;;;;;;;;;;;;;;6247135;23;19916;-87
2024/03/31 21:23:09;;;;;;;;;;;;;;;;;;6247196;23;19912;-88
2024/03/31 21:25:35;;;;;;;;;;;;;;;;;;6247391;23;19979;-88
2024/03/31 21:28:00;;;;;;;;;;;;;;;;;;6247298;23;19960;-88
2024/03/31 21:30:26;;;;;;;;;;;;;;;;;;6247390;23;19931;-88
2024/03/31 21:32:51;;;;;;;;;;;;;;;;;;6221266;22;19914;-88
2024/03/31 21:35:17;;;;;;;;;;;;;;;;;;6221540;23;19957;-88
2024/03/31 21:37:42;;;;;;;;;;;;;;;;;;6246486;23;19908;-87
2024/03/31 21:40:08;;;;;;;;;;;;;;;;;;6246887;23;19931;-87
2024/03/31 21:42:33;;;;;;;;;;;;;;;;;;6246939;23;20052;-87
2024/03/31 21:44:59;;;;;;;;;;;;;;;;;;6246764;23;19911;-87
2024/03/31 21:47:24;;;;;;;;;;;;;;;;;;6219821;23;20323;-87
2024/03/31 21:49:50;;;;;;;;;;;;;;;;;;6220087;23;19947;-88
2024/03/31 21:52:15;;;;;;;;;;;;;;;;;;6246741;23;19934;-88
2024/03/31 21:54:41;;;;;;;;;;;;;;;;;;6246682;23;19908;-87
2024/03/31 21:57:06;;;;;;;;;;;;;;;;;;6220106;23;19958;-88
2024/03/31 21:59:31;;;;;;;;;;;;;;;;;;6219915;23;19903;-87
2024/03/31 22:01:57;;;;;;;;;;;;;;;;;;6220088;23;19992;-87
2024/03/31 22:04:22;;;;;;;;;;;;;;;;;;6219892;23;20314;-87
2024/03/31 22:06:47;;;;;;;;;;;;;;;;;;6246981;23;19919;-87
2024/03/31 22:09:13;;;;;;;;;;;;;;;;;;6220125;23;20307;-88
2024/03/31 22:11:39;;;;;;;;;;;;;;;;;;6219938;23;19903;-88
2024/03/31 22:14:05;;;;;;;;;;;;;;;;;;6246578;23;20282;-88
2024/03/31 22:16:33;;;;;;;;;;;;;;;;;;6246868;23;19923;-88
2024/03/31 22:18:59;;;;;;;;;;;;;;;;;;6219864;23;19975;-87
2024/03/31 22:21:24;;;;;;;;;;;;;;;;;;6219816;23;19935;-87
2024/03/31 22:23:49;;;;;;;;;;;;;;;;;;6246904;23;20226;-88
